Terminal Aerodrome Forecast
Issued by NWS

Home | Current Version | Previous Version | Text Only | Print | Product List | Glossary On
Versions: 1 2 3 4 5 6 7 8 9 10 11 12 13 14
000
FTAK31 PAJN 271100
TAFAKT
TAF
PAKT 271137Z 2712/2812 30010KT P6SM VCSH SCT020 OVC030
     FM271500 31008KT 6SM BR VCSH SCT008 BKN030
     FM272000 VRB06KT P6SM FEW010 SCT050
     FM272200 12006KT P6SM SKC
      AMD LTD TO CLD VIS AND WIND 2712/2715=

USA.gov is the U.S. government's official web portal to all federal, state and local government web resources and services.